sensor_id;sensor_type;location;lat;lon;timestamp;P1;durP1;ratioP1;P2;durP2;ratioP2
23676;SDS011;31493;49.058;12.190;2024-03-02T00:00:27;131.63;;;52.95;;
23676;SDS011;31493;49.058;12.190;2024-03-02T00:02:54;118.10;;;50.15;;
23676;SDS011;31493;49.058;12.190;2024-03-02T00:05:22;114.00;;;48.40;;
23676;SDS011;31493;49.058;12.190;2024-03-02T00:07:52;110.70;;;47.85;;
23676;SDS011;31493;49.058;12.190;2024-03-02T00:10:23;121.95;;;48.38;;
23676;SDS011;31493;49.058;12.190;2024-03-02T00:12:54;101.38;;;44.92;;
23676;SDS011;31493;49.058;12.190;2024-03-02T00:15:29;112.32;;;47.90;;
23676;SDS011;31493;49.058;12.190;2024-03-02T00:18:08;137.00;;;45.60;;
23676;SDS011;31493;49.058;12.190;2024-03-02T00:20:38;108.78;;;43.50;;
23676;SDS011;31493;49.058;12.190;2024-03-02T00:23:06;103.18;;;42.60;;
23676;SDS011;31493;49.058;12.190;2024-03-02T00:28:04;101.18;;;42.15;;
23676;SDS011;31493;49.058;12.190;2024-03-02T00:30:39;149.93;;;46.95;;
23676;SDS011;31493;49.058;12.190;2024-03-02T00:33:18;121.60;;;40.17;;
23676;SDS011;31493;49.058;12.190;2024-03-02T00:35:46;126.40;;;38.67;;
23676;SDS011;31493;49.058;12.190;2024-03-02T00:38:14;122.50;;;41.67;;
23676;SDS011;31493;49.058;12.190;2024-03-02T00:40:43;116.72;;;35.67;;
23676;SDS011;31493;49.058;12.190;2024-03-02T00:43:16;148.90;;;39.05;;
23676;SDS011;31493;49.058;12.190;2024-03-02T00:46:01;195.27;;;37.40;;
23676;SDS011;31493;49.058;12.190;2024-03-02T00:48:28;130.35;;;41.40;;
23676;SDS011;31493;49.058;12.190;2024-03-02T00:50:57;191.75;;;44.00;;
23676;SDS011;31493;49.058;12.190;2024-03-02T00:53:24;122.60;;;41.08;;
23676;SDS011;31493;49.058;12.190;2024-03-02T00:58:21;139.20;;;41.40;;
23676;SDS011;31493;49.058;12.190;2024-03-02T01:00:48;132.50;;;42.28;;
23676;SDS011;31493;49.058;12.190;2024-03-02T01:03:15;132.02;;;42.55;;
23676;SDS011;31493;49.058;12.190;2024-03-02T01:05:42;122.05;;;42.97;;
23676;SDS011;31493;49.058;12.190;2024-03-02T01:08:09;115.78;;;40.13;;
23676;SDS011;31493;49.058;12.190;2024-03-02T01:10:37;100.13;;;44.53;;
23676;SDS011;31493;49.058;12.190;2024-03-02T01:13:05;112.53;;;44.90;;
23676;SDS011;31493;49.058;12.190;2024-03-02T01:15:33;138.68;;;44.13;;
23676;SDS011;31493;49.058;12.190;2024-03-02T01:18:00;111.65;;;42.85;;
23676;SDS011;31493;49.058;12.190;2024-03-02T01:20:27;111.07;;;43.60;;
23676;SDS011;31493;49.058;12.190;2024-03-02T01:22:54;127.32;;;43.85;;
23676;SDS011;31493;49.058;12.190;2024-03-02T01:25:21;106.65;;;43.17;;
23676;SDS011;31493;49.058;12.190;2024-03-02T01:27:48;109.53;;;45.80;;
23676;SDS011;31493;49.058;12.190;2024-03-02T01:30:17;133.18;;;45.08;;
23676;SDS011;31493;49.058;12.190;2024-03-02T01:32:44;111.95;;;45.28;;
23676;SDS011;31493;49.058;12.190;2024-03-02T01:35:11;120.95;;;46.20;;
23676;SDS011;31493;49.058;12.190;2024-03-02T01:37:38;126.55;;;49.42;;
23676;SDS011;31493;49.058;12.190;2024-03-02T01:40:05;133.90;;;52.17;;
23676;SDS011;31493;49.058;12.190;2024-03-02T01:42:35;137.07;;;50.40;;
23676;SDS011;31493;49.058;12.190;2024-03-02T01:45:03;136.67;;;52.47;;
23676;SDS011;31493;49.058;12.190;2024-03-02T01:47:32;140.52;;;50.03;;
23676;SDS011;31493;49.058;12.190;2024-03-02T01:49:59;130.10;;;49.78;;
23676;SDS011;31493;49.058;12.190;2024-03-02T01:52:27;125.57;;;49.42;;
23676;SDS011;31493;49.058;12.190;2024-03-02T01:54:55;132.05;;;48.53;;
23676;SDS011;31493;49.058;12.190;2024-03-02T01:57:22;130.40;;;49.47;;
23676;SDS011;31493;49.058;12.190;2024-03-02T01:59:49;129.93;;;48.53;;
23676;SDS011;31493;49.058;12.190;2024-03-02T02:02:17;127.82;;;48.38;;
23676;SDS011;31493;49.058;12.190;2024-03-02T02:04:45;132.65;;;50.35;;
23676;SDS011;31493;49.058;12.190;2024-03-02T02:07:12;129.25;;;49.90;;
23676;SDS011;31493;49.058;12.190;2024-03-02T02:09:40;134.02;;;51.95;;
23676;SDS011;31493;49.058;12.190;2024-03-02T02:12:08;120.05;;;49.50;;
23676;SDS011;31493;49.058;12.190;2024-03-02T02:14:36;130.10;;;52.00;;
23676;SDS011;31493;49.058;12.190;2024-03-02T02:17:04;130.80;;;51.90;;
23676;SDS011;31493;49.058;12.190;2024-03-02T02:19:32;133.63;;;51.95;;
23676;SDS011;31493;49.058;12.190;2024-03-02T02:22:00;121.45;;;49.28;;
23676;SDS011;31493;49.058;12.190;2024-03-02T02:24:27;144.90;;;53.28;;
23676;SDS011;31493;49.058;12.190;2024-03-02T02:26:54;142.60;;;54.00;;
23676;SDS011;31493;49.058;12.190;2024-03-02T02:29:21;148.73;;;55.67;;
23676;SDS011;31493;49.058;12.190;2024-03-02T02:31:48;162.77;;;57.58;;
23676;SDS011;31493;49.058;12.190;2024-03-02T02:34:15;136.70;;;51.65;;
23676;SDS011;31493;49.058;12.190;2024-03-02T02:36:42;146.27;;;54.25;;
23676;SDS011;31493;49.058;12.190;2024-03-02T02:39:12;139.32;;;53.17;;
23676;SDS011;31493;49.058;12.190;2024-03-02T02:41:42;164.50;;;57.75;;
23676;SDS011;31493;49.058;12.190;2024-03-02T02:44:09;153.93;;;58.17;;
23676;SDS011;31493;49.058;12.190;2024-03-02T02:46:38;140.45;;;55.58;;
23676;SDS011;31493;49.058;12.190;2024-03-02T02:49:05;142.18;;;54.60;;
23676;SDS011;31493;49.058;12.190;2024-03-02T02:51:32;157.82;;;56.15;;
23676;SDS011;31493;49.058;12.190;2024-03-02T02:54:00;143.90;;;55.45;;
23676;SDS011;31493;49.058;12.190;2024-03-02T02:56:28;142.75;;;53.58;;
23676;SDS011;31493;49.058;12.190;2024-03-02T02:58:55;143.85;;;54.10;;
23676;SDS011;31493;49.058;12.190;2024-03-02T03:01:22;125.65;;;50.28;;
23676;SDS011;31493;49.058;12.190;2024-03-02T03:03:49;136.82;;;52.58;;
23676;SDS011;31493;49.058;12.190;2024-03-02T03:06:16;139.93;;;51.30;;
23676;SDS011;31493;49.058;12.190;2024-03-02T03:08:43;206.07;;;57.22;;
23676;SDS011;31493;49.058;12.190;2024-03-02T03:11:10;163.27;;;55.55;;
23676;SDS011;31493;49.058;12.190;2024-03-02T03:13:39;166.45;;;51.70;;
23676;SDS011;31493;49.058;12.190;2024-03-02T03:16:06;176.40;;;54.45;;
23676;SDS011;31493;49.058;12.190;2024-03-02T03:18:34;200.15;;;53.70;;
23676;SDS011;31493;49.058;12.190;2024-03-02T03:21:01;203.98;;;50.17;;
23676;SDS011;31493;49.058;12.190;2024-03-02T03:23:28;213.65;;;49.28;;
23676;SDS011;31493;49.058;12.190;2024-03-02T03:25:55;201.18;;;47.47;;
23676;SDS011;31493;49.058;12.190;2024-03-02T03:28:22;257.05;;;51.67;;
23676;SDS011;31493;49.058;12.190;2024-03-02T03:30:51;236.02;;;49.05;;
23676;SDS011;31493;49.058;12.190;2024-03-02T03:33:18;173.95;;;49.42;;
23676;SDS011;31493;49.058;12.190;2024-03-02T03:35:45;193.95;;;50.45;;
23676;SDS011;31493;49.058;12.190;2024-03-02T03:38:13;195.68;;;49.90;;
23676;SDS011;31493;49.058;12.190;2024-03-02T03:40:40;166.50;;;48.40;;
23676;SDS011;31493;49.058;12.190;2024-03-02T03:43:07;169.93;;;45.38;;
23676;SDS011;31493;49.058;12.190;2024-03-02T03:45:34;177.75;;;47.85;;
23676;SDS011;31493;49.058;12.190;2024-03-02T03:48:03;137.15;;;45.65;;
23676;SDS011;31493;49.058;12.190;2024-03-02T03:50:30;138.27;;;44.55;;
23676;SDS011;31493;49.058;12.190;2024-03-02T03:52:57;142.30;;;42.58;;
23676;SDS011;31493;49.058;12.190;2024-03-02T03:55:24;192.80;;;43.88;;
23676;SDS011;31493;49.058;12.190;2024-03-02T03:57:51;156.52;;;41.00;;
23676;SDS011;31493;49.058;12.190;2024-03-02T04:00:18;176.30;;;42.92;;
23676;SDS011;31493;49.058;12.190;2024-03-02T04:02:45;159.10;;;42.85;;
23676;SDS011;31493;49.058;12.190;2024-03-02T04:05:14;178.60;;;43.05;;
23676;SDS011;31493;49.058;12.190;2024-03-02T04:07:41;219.63;;;40.05;;
23676;SDS011;31493;49.058;12.190;2024-03-02T04:10:08;184.50;;;42.38;;
23676;SDS011;31493;49.058;12.190;2024-03-02T04:12:36;181.43;;;41.40;;
23676;SDS011;31493;49.058;12.190;2024-03-02T04:15:04;228.45;;;41.20;;
23676;SDS011;31493;49.058;12.190;2024-03-02T04:17:32;193.85;;;43.42;;
23676;SDS011;31493;49.058;12.190;2024-03-02T04:24:59;230.52;;;42.95;;
23676;SDS011;31493;49.058;12.190;2024-03-02T04:27:26;187.65;;;45.65;;
23676;SDS011;31493;49.058;12.190;2024-03-02T04:29:53;178.07;;;45.83;;
23676;SDS011;31493;49.058;12.190;2024-03-02T04:32:20;144.85;;;46.95;;
23676;SDS011;31493;49.058;12.190;2024-03-02T04:34:47;255.35;;;48.83;;
23676;SDS011;31493;49.058;12.190;2024-03-02T04:37:14;182.32;;;48.22;;
23676;SDS011;31493;49.058;12.190;2024-03-02T04:39:42;194.95;;;49.22;;
23676;SDS011;31493;49.058;12.190;2024-03-02T04:42:10;169.65;;;48.40;;
23676;SDS011;31493;49.058;12.190;2024-03-02T04:44:37;194.43;;;48.63;;
23676;SDS011;31493;49.058;12.190;2024-03-02T04:47:04;256.70;;;49.47;;
23676;SDS011;31493;49.058;12.190;2024-03-02T04:49:31;210.07;;;44.53;;
23676;SDS011;31493;49.058;12.190;2024-03-02T04:51:58;323.02;;;51.45;;
23676;SDS011;31493;49.058;12.190;2024-03-02T04:54:26;393.58;;;54.25;;
23676;SDS011;31493;49.058;12.190;2024-03-02T04:56:54;535.10;;;49.22;;
23676;SDS011;31493;49.058;12.190;2024-03-02T04:59:21;558.53;;;52.22;;
23676;SDS011;31493;49.058;12.190;2024-03-02T05:01:48;559.50;;;50.10;;
23676;SDS011;31493;49.058;12.190;2024-03-02T05:04:15;789.47;;;53.53;;
23676;SDS011;31493;49.058;12.190;2024-03-02T05:06:42;866.30;;;57.90;;
23676;SDS011;31493;49.058;12.190;2024-03-02T05:09:09;877.67;;;57.85;;
23676;SDS011;31493;49.058;12.190;2024-03-02T05:11:36;662.55;;;55.45;;
23676;SDS011;31493;49.058;12.190;2024-03-02T05:17:04;652.92;;;50.83;;
23676;SDS011;31493;49.058;12.190;2024-03-02T05:19:31;824.03;;;52.67;;
23676;SDS011;31493;49.058;12.190;2024-03-02T05:21:58;736.20;;;54.67;;
23676;SDS011;31493;49.058;12.190;2024-03-02T05:24:25;831.20;;;58.60;;
23676;SDS011;31493;49.058;12.190;2024-03-02T05:26:53;977.72;;;60.10;;
23676;SDS011;31493;49.058;12.190;2024-03-02T05:29:20;948.78;;;54.50;;
23676;SDS011;31493;49.058;12.190;2024-03-02T05:31:49;873.53;;;54.28;;
23676;SDS011;31493;49.058;12.190;2024-03-02T05:34:16;822.38;;;55.50;;
23676;SDS011;31493;49.058;12.190;2024-03-02T05:36:44;968.17;;;59.65;;
23676;SDS011;31493;49.058;12.190;2024-03-02T05:39:11;832.45;;;58.53;;
23676;SDS011;31493;49.058;12.190;2024-03-02T05:41:38;579.22;;;51.88;;
23676;SDS011;31493;49.058;12.190;2024-03-02T05:44:05;650.90;;;55.38;;
23676;SDS011;31493;49.058;12.190;2024-03-02T05:46:32;512.53;;;54.92;;
23676;SDS011;31493;49.058;12.190;2024-03-02T05:49:00;581.97;;;52.67;;
23676;SDS011;31493;49.058;12.190;2024-03-02T05:51:28;702.50;;;57.03;;
23676;SDS011;31493;49.058;12.190;2024-03-02T05:53:55;590.03;;;55.88;;
23676;SDS011;31493;49.058;12.190;2024-03-02T05:56:22;524.35;;;52.40;;
23676;SDS011;31493;49.058;12.190;2024-03-02T05:58:49;504.20;;;52.75;;
23676;SDS011;31493;49.058;12.190;2024-03-02T06:01:34;494.23;;;53.92;;
23676;SDS011;31493;49.058;12.190;2024-03-02T06:04:02;592.15;;;55.30;;
23676;SDS011;31493;49.058;12.190;2024-03-02T06:06:30;695.13;;;57.38;;
23676;SDS011;31493;49.058;12.190;2024-03-02T06:08:58;770.97;;;59.45;;
23676;SDS011;31493;49.058;12.190;2024-03-02T06:11:25;532.33;;;52.17;;
23676;SDS011;31493;49.058;12.190;2024-03-02T06:13:52;577.72;;;53.30;;
23676;SDS011;31493;49.058;12.190;2024-03-02T06:16:19;529.70;;;56.83;;
23676;SDS011;31493;49.058;12.190;2024-03-02T06:18:46;450.67;;;52.28;;
23676;SDS011;31493;49.058;12.190;2024-03-02T06:21:14;454.92;;;52.45;;
23676;SDS011;31493;49.058;12.190;2024-03-02T06:23:41;480.75;;;57.10;;
23676;SDS011;31493;49.058;12.190;2024-03-02T06:26:08;457.30;;;54.67;;
23676;SDS011;31493;49.058;12.190;2024-03-02T06:28:35;590.50;;;57.83;;
23676;SDS011;31493;49.058;12.190;2024-03-02T06:31:03;504.55;;;54.33;;
23676;SDS011;31493;49.058;12.190;2024-03-02T06:33:30;372.85;;;51.72;;
23676;SDS011;31493;49.058;12.190;2024-03-02T06:35:57;580.97;;;56.95;;
23676;SDS011;31493;49.058;12.190;2024-03-02T06:38:25;422.80;;;50.72;;
23676;SDS011;31493;49.058;12.190;2024-03-02T06:40:52;310.60;;;49.80;;
23676;SDS011;31493;49.058;12.190;2024-03-02T06:43:20;411.95;;;54.13;;
23676;SDS011;31493;49.058;12.190;2024-03-02T06:45:49;490.85;;;56.42;;
23676;SDS011;31493;49.058;12.190;2024-03-02T06:48:16;380.08;;;55.30;;
23676;SDS011;31493;49.058;12.190;2024-03-02T06:50:45;385.45;;;55.22;;
23676;SDS011;31493;49.058;12.190;2024-03-02T06:53:13;479.08;;;51.92;;
23676;SDS011;31493;49.058;12.190;2024-03-02T06:55:44;519.72;;;56.28;;
23676;SDS011;31493;49.058;12.190;2024-03-02T06:58:11;543.22;;;55.28;;
23676;SDS011;31493;49.058;12.190;2024-03-02T07:00:39;778.42;;;56.97;;
23676;SDS011;31493;49.058;12.190;2024-03-02T07:03:06;614.72;;;54.55;;
23676;SDS011;31493;49.058;12.190;2024-03-02T07:05:33;613.10;;;55.35;;
23676;SDS011;31493;49.058;12.190;2024-03-02T07:08:00;507.58;;;54.88;;
23676;SDS011;31493;49.058;12.190;2024-03-02T07:10:29;432.45;;;51.30;;
23676;SDS011;31493;49.058;12.190;2024-03-02T07:12:57;477.73;;;54.47;;
23676;SDS011;31493;49.058;12.190;2024-03-02T07:15:24;391.30;;;54.08;;
23676;SDS011;31493;49.058;12.190;2024-03-02T07:18:15;352.95;;;51.28;;
23676;SDS011;31493;49.058;12.190;2024-03-02T07:20:43;384.95;;;52.08;;
23676;SDS011;31493;49.058;12.190;2024-03-02T07:23:10;413.88;;;54.70;;
23676;SDS011;31493;49.058;12.190;2024-03-02T07:25:37;685.30;;;51.13;;
23676;SDS011;31493;49.058;12.190;2024-03-02T07:28:06;510.25;;;53.92;;
23676;SDS011;31493;49.058;12.190;2024-03-02T07:30:33;443.20;;;53.10;;
23676;SDS011;31493;49.058;12.190;2024-03-02T07:33:00;388.58;;;53.45;;
23676;SDS011;31493;49.058;12.190;2024-03-02T07:35:27;256.40;;;44.95;;
23676;SDS011;31493;49.058;12.190;2024-03-02T07:37:57;369.88;;;50.30;;
23676;SDS011;31493;49.058;12.190;2024-03-02T07:40:24;321.52;;;51.15;;
23676;SDS011;31493;49.058;12.190;2024-03-02T07:42:51;466.92;;;54.88;;
23676;SDS011;31493;49.058;12.190;2024-03-02T07:47:48;436.83;;;52.42;;
23676;SDS011;31493;49.058;12.190;2024-03-02T07:50:16;495.17;;;53.88;;
23676;SDS011;31493;49.058;12.190;2024-03-02T07:52:43;287.75;;;52.22;;
23676;SDS011;31493;49.058;12.190;2024-03-02T07:55:10;259.98;;;50.00;;
23676;SDS011;31493;49.058;12.190;2024-03-02T07:57:37;162.60;;;48.63;;
23676;SDS011;31493;49.058;12.190;2024-03-02T08:00:05;211.55;;;50.15;;
23676;SDS011;31493;49.058;12.190;2024-03-02T08:02:34;215.10;;;52.42;;
23676;SDS011;31493;49.058;12.190;2024-03-02T08:05:01;186.85;;;53.03;;
23676;SDS011;31493;49.058;12.190;2024-03-02T08:07:29;154.65;;;53.85;;
23676;SDS011;31493;49.058;12.190;2024-03-02T08:09:56;172.30;;;56.03;;
23676;SDS011;31493;49.058;12.190;2024-03-02T08:12:23;147.20;;;54.13;;
23676;SDS011;31493;49.058;12.190;2024-03-02T08:14:50;151.40;;;53.65;;
23676;SDS011;31493;49.058;12.190;2024-03-02T08:17:17;158.02;;;56.53;;
23676;SDS011;31493;49.058;12.190;2024-03-02T08:19:45;156.18;;;56.55;;
23676;SDS011;31493;49.058;12.190;2024-03-02T08:22:14;156.80;;;54.88;;
23676;SDS011;31493;49.058;12.190;2024-03-02T08:24:41;159.73;;;57.33;;
23676;SDS011;31493;49.058;12.190;2024-03-02T08:27:08;128.15;;;50.45;;
23676;SDS011;31493;49.058;12.190;2024-03-02T08:29:35;144.70;;;56.88;;
23676;SDS011;31493;49.058;12.190;2024-03-02T08:32:03;161.23;;;58.85;;
23676;SDS011;31493;49.058;12.190;2024-03-02T08:37:00;140.95;;;56.00;;
23676;SDS011;31493;49.058;12.190;2024-03-02T08:39:28;144.43;;;56.42;;
23676;SDS011;31493;49.058;12.190;2024-03-02T08:41:55;135.70;;;54.88;;
23676;SDS011;31493;49.058;12.190;2024-03-02T08:44:22;146.20;;;57.97;;
23676;SDS011;31493;49.058;12.190;2024-03-02T08:46:50;150.15;;;57.58;;
23676;SDS011;31493;49.058;12.190;2024-03-02T08:49:17;142.30;;;57.45;;
23676;SDS011;31493;49.058;12.190;2024-03-02T08:51:44;139.95;;;56.22;;
23676;SDS011;31493;49.058;12.190;2024-03-02T08:54:21;133.48;;;55.20;;
23676;SDS011;31493;49.058;12.190;2024-03-02T08:56:48;122.32;;;52.70;;
23676;SDS011;31493;49.058;12.190;2024-03-02T08:59:15;126.03;;;54.35;;
23676;SDS011;31493;49.058;12.190;2024-03-02T09:01:42;133.45;;;56.40;;
23676;SDS011;31493;49.058;12.190;2024-03-02T09:04:10;126.57;;;53.67;;
23676;SDS011;31493;49.058;12.190;2024-03-02T09:06:38;124.35;;;53.95;;
23676;SDS011;31493;49.058;12.190;2024-03-02T09:09:05;125.72;;;54.30;;
23676;SDS011;31493;49.058;12.190;2024-03-02T09:11:33;128.30;;;53.60;;
23676;SDS011;31493;49.058;12.190;2024-03-02T09:14:01;118.75;;;51.47;;
23676;SDS011;31493;49.058;12.190;2024-03-02T09:16:29;113.22;;;51.65;;
23676;SDS011;31493;49.058;12.190;2024-03-02T09:18:56;116.28;;;51.28;;
23676;SDS011;31493;49.058;12.190;2024-03-02T09:21:24;122.80;;;54.83;;
23676;SDS011;31493;49.058;12.190;2024-03-02T09:23:51;129.57;;;56.33;;
23676;SDS011;31493;49.058;12.190;2024-03-02T09:26:18;115.32;;;52.05;;
23676;SDS011;31493;49.058;12.190;2024-03-02T09:28:47;108.78;;;50.17;;
23676;SDS011;31493;49.058;12.190;2024-03-02T09:31:14;120.68;;;52.63;;
23676;SDS011;31493;49.058;12.190;2024-03-02T09:33:41;106.75;;;49.95;;
23676;SDS011;31493;49.058;12.190;2024-03-02T09:36:16;105.05;;;49.97;;
23676;SDS011;31493;49.058;12.190;2024-03-02T09:38:44;104.82;;;50.00;;
23676;SDS011;31493;49.058;12.190;2024-03-02T09:41:11;107.03;;;50.63;;
23676;SDS011;31493;49.058;12.190;2024-03-02T09:43:39;106.40;;;49.40;;
23676;SDS011;31493;49.058;12.190;2024-03-02T09:46:08;106.90;;;50.17;;
23676;SDS011;31493;49.058;12.190;2024-03-02T09:48:36;105.72;;;50.88;;
23676;SDS011;31493;49.058;12.190;2024-03-02T09:51:03;106.47;;;50.03;;
23676;SDS011;31493;49.058;12.190;2024-03-02T09:53:31;108.47;;;50.88;;
23676;SDS011;31493;49.058;12.190;2024-03-02T09:56:00;108.45;;;51.25;;
23676;SDS011;31493;49.058;12.190;2024-03-02T09:58:27;98.40;;;49.00;;
23676;SDS011;31493;49.058;12.190;2024-03-02T10:00:54;101.68;;;49.65;;
23676;SDS011;31493;49.058;12.190;2024-03-02T10:03:22;94.85;;;46.67;;
23676;SDS011;31493;49.058;12.190;2024-03-02T10:05:50;96.63;;;47.10;;
23676;SDS011;31493;49.058;12.190;2024-03-02T10:08:18;97.90;;;47.40;;
23676;SDS011;31493;49.058;12.190;2024-03-02T10:10:45;96.57;;;47.03;;
23676;SDS011;31493;49.058;12.190;2024-03-02T10:13:13;85.40;;;41.70;;
23676;SDS011;31493;49.058;12.190;2024-03-02T10:15:41;80.90;;;43.60;;
23676;SDS011;31493;49.058;12.190;2024-03-02T10:18:08;77.13;;;40.55;;
23676;SDS011;31493;49.058;12.190;2024-03-02T10:20:38;80.32;;;43.65;;
23676;SDS011;31493;49.058;12.190;2024-03-02T10:23:12;80.28;;;42.58;;
23676;SDS011;31493;49.058;12.190;2024-03-02T10:25:40;84.30;;;43.30;;
23676;SDS011;31493;49.058;12.190;2024-03-02T10:28:07;80.72;;;40.25;;
23676;SDS011;31493;49.058;12.190;2024-03-02T10:30:34;75.00;;;42.95;;
23676;SDS011;31493;49.058;12.190;2024-03-02T10:33:02;78.85;;;41.28;;
23676;SDS011;31493;49.058;12.190;2024-03-02T10:35:29;78.68;;;41.40;;
23676;SDS011;31493;49.058;12.190;2024-03-02T10:37:59;81.13;;;40.78;;
23676;SDS011;31493;49.058;12.190;2024-03-02T10:42:53;74.10;;;39.70;;
23676;SDS011;31493;49.058;12.190;2024-03-02T10:45:21;71.40;;;38.70;;
23676;SDS011;31493;49.058;12.190;2024-03-02T10:47:50;67.07;;;38.85;;
23676;SDS011;31493;49.058;12.190;2024-03-02T10:50:17;70.88;;;37.88;;
23676;SDS011;31493;49.058;12.190;2024-03-02T10:52:44;67.47;;;38.90;;
23676;SDS011;31493;49.058;12.190;2024-03-02T10:55:13;68.93;;;37.92;;
23676;SDS011;31493;49.058;12.190;2024-03-02T10:57:41;70.00;;;38.78;;
23676;SDS011;31493;49.058;12.190;2024-03-02T11:02:38;70.97;;;37.38;;
23676;SDS011;31493;49.058;12.190;2024-03-02T11:05:07;60.80;;;34.42;;
23676;SDS011;31493;49.058;12.190;2024-03-02T11:07:37;64.28;;;37.35;;
23676;SDS011;31493;49.058;12.190;2024-03-02T11:10:06;67.82;;;38.00;;
23676;SDS011;31493;49.058;12.190;2024-03-02T11:12:36;66.18;;;37.45;;
23676;SDS011;31493;49.058;12.190;2024-03-02T11:15:08;63.95;;;34.50;;
23676;SDS011;31493;49.058;12.190;2024-03-02T11:17:39;62.15;;;36.13;;
23676;SDS011;31493;49.058;12.190;2024-03-02T11:20:07;57.63;;;34.20;;
23676;SDS011;31493;49.058;12.190;2024-03-02T11:22:35;55.47;;;32.42;;
23676;SDS011;31493;49.058;12.190;2024-03-02T11:25:03;57.80;;;33.63;;
23676;SDS011;31493;49.058;12.190;2024-03-02T11:33:25;58.03;;;33.20;;
23676;SDS011;31493;49.058;12.190;2024-03-02T11:35:56;54.15;;;31.60;;
23676;SDS011;31493;49.058;12.190;2024-03-02T11:38:30;57.38;;;32.67;;
23676;SDS011;31493;49.058;12.190;2024-03-02T11:40:59;53.63;;;31.38;;
23676;SDS011;31493;49.058;12.190;2024-03-02T11:43:27;51.90;;;30.92;;
23676;SDS011;31493;49.058;12.190;2024-03-02T11:45:58;51.42;;;30.33;;
23676;SDS011;31493;49.058;12.190;2024-03-02T11:48:27;54.33;;;30.48;;
23676;SDS011;31493;49.058;12.190;2024-03-02T11:50:57;51.78;;;30.90;;
23676;SDS011;31493;49.058;12.190;2024-03-02T11:53:26;48.72;;;29.38;;
23676;SDS011;31493;49.058;12.190;2024-03-02T11:58:22;47.08;;;28.90;;
23676;SDS011;31493;49.058;12.190;2024-03-02T12:00:50;48.43;;;29.40;;
23676;SDS011;31493;49.058;12.190;2024-03-02T12:03:17;48.28;;;29.38;;
23676;SDS011;31493;49.058;12.190;2024-03-02T12:05:46;48.33;;;28.45;;
23676;SDS011;31493;49.058;12.190;2024-03-02T12:08:15;43.22;;;27.00;;
23676;SDS011;31493;49.058;12.190;2024-03-02T12:10:43;44.20;;;27.25;;
23676;SDS011;31493;49.058;12.190;2024-03-02T12:13:24;40.13;;;25.67;;
23676;SDS011;31493;49.058;12.190;2024-03-02T12:15:52;40.00;;;26.38;;
23676;SDS011;31493;49.058;12.190;2024-03-02T12:18:21;43.00;;;25.85;;
23676;SDS011;31493;49.058;12.190;2024-03-02T12:20:50;40.72;;;26.15;;
23676;SDS011;31493;49.058;12.190;2024-03-02T12:23:18;38.35;;;24.75;;
23676;SDS011;31493;49.058;12.190;2024-03-02T12:25:46;40.67;;;25.35;;
23676;SDS011;31493;49.058;12.190;2024-03-02T12:28:13;39.75;;;23.63;;
23676;SDS011;31493;49.058;12.190;2024-03-02T12:30:40;39.83;;;25.20;;
23676;SDS011;31493;49.058;12.190;2024-03-02T12:33:08;37.63;;;23.42;;
23676;SDS011;31493;49.058;12.190;2024-03-02T12:35:37;37.42;;;23.25;;
23676;SDS011;31493;49.058;12.190;2024-03-02T12:38:06;37.78;;;23.00;;
23676;SDS011;31493;49.058;12.190;2024-03-02T12:40:33;38.42;;;24.45;;
23676;SDS011;31493;49.058;12.190;2024-03-02T12:43:00;34.72;;;22.85;;
23676;SDS011;31493;49.058;12.190;2024-03-02T12:45:27;33.45;;;22.10;;
23676;SDS011;31493;49.058;12.190;2024-03-02T12:47:54;35.95;;;22.73;;
23676;SDS011;31493;49.058;12.190;2024-03-02T12:50:21;33.17;;;21.90;;
23676;SDS011;31493;49.058;12.190;2024-03-02T12:52:52;35.10;;;22.45;;
23676;SDS011;31493;49.058;12.190;2024-03-02T12:55:21;32.55;;;21.75;;
23676;SDS011;31493;49.058;12.190;2024-03-02T12:57:49;31.60;;;21.05;;
23676;SDS011;31493;49.058;12.190;2024-03-02T13:00:18;32.10;;;21.43;;
23676;SDS011;31493;49.058;12.190;2024-03-02T13:02:46;33.17;;;21.70;;
23676;SDS011;31493;49.058;12.190;2024-03-02T13:05:14;32.35;;;21.17;;
23676;SDS011;31493;49.058;12.190;2024-03-02T13:07:41;32.42;;;21.42;;
23676;SDS011;31493;49.058;12.190;2024-03-02T13:10:08;34.42;;;20.73;;
23676;SDS011;31493;49.058;12.190;2024-03-02T13:12:36;32.67;;;21.25;;
23676;SDS011;31493;49.058;12.190;2024-03-02T13:15:04;31.73;;;21.10;;
23676;SDS011;31493;49.058;12.190;2024-03-02T13:17:33;30.35;;;19.13;;
23676;SDS011;31493;49.058;12.190;2024-03-02T13:20:01;31.40;;;19.90;;
23676;SDS011;31493;49.058;12.190;2024-03-02T13:22:33;28.58;;;19.08;;
23676;SDS011;31493;49.058;12.190;2024-03-02T13:25:00;29.73;;;19.35;;
23676;SDS011;31493;49.058;12.190;2024-03-02T13:27:29;30.10;;;21.13;;
23676;SDS011;31493;49.058;12.190;2024-03-02T13:29:58;28.80;;;20.15;;
23676;SDS011;31493;49.058;12.190;2024-03-02T13:32:25;30.55;;;20.50;;
23676;SDS011;31493;49.058;12.190;2024-03-02T13:34:52;29.98;;;19.42;;
23676;SDS011;31493;49.058;12.190;2024-03-02T13:37:19;31.60;;;20.00;;
23676;SDS011;31493;49.058;12.190;2024-03-02T13:39:47;32.95;;;19.88;;
23676;SDS011;31493;49.058;12.190;2024-03-02T13:42:14;32.20;;;20.73;;
23676;SDS011;31493;49.058;12.190;2024-03-02T13:44:43;34.33;;;20.20;;
23676;SDS011;31493;49.058;12.190;2024-03-02T13:47:12;30.52;;;20.10;;
23676;SDS011;31493;49.058;12.190;2024-03-02T13:49:39;30.23;;;20.42;;
23676;SDS011;31493;49.058;12.190;2024-03-02T13:52:09;33.95;;;20.25;;
23676;SDS011;31493;49.058;12.190;2024-03-02T13:54:38;29.42;;;19.95;;
23676;SDS011;31493;49.058;12.190;2024-03-02T13:57:06;32.90;;;20.60;;
23676;SDS011;31493;49.058;12.190;2024-03-02T13:59:34;31.42;;;21.00;;
23676;SDS011;31493;49.058;12.190;2024-03-02T14:02:02;34.33;;;20.67;;
23676;SDS011;31493;49.058;12.190;2024-03-02T14:06:59;32.33;;;21.48;;
23676;SDS011;31493;49.058;12.190;2024-03-02T14:09:27;33.00;;;20.67;;
23676;SDS011;31493;49.058;12.190;2024-03-02T14:11:54;31.08;;;20.95;;
23676;SDS011;31493;49.058;12.190;2024-03-02T14:14:23;31.88;;;21.70;;
23676;SDS011;31493;49.058;12.190;2024-03-02T14:16:50;30.95;;;20.67;;
23676;SDS011;31493;49.058;12.190;2024-03-02T14:19:17;32.78;;;21.00;;
23676;SDS011;31493;49.058;12.190;2024-03-02T14:21:45;32.55;;;20.02;;
23676;SDS011;31493;49.058;12.190;2024-03-02T14:24:13;32.13;;;20.77;;
23676;SDS011;31493;49.058;12.190;2024-03-02T14:26:40;33.83;;;21.27;;
23676;SDS011;31493;49.058;12.190;2024-03-02T14:29:07;29.60;;;20.63;;
23676;SDS011;31493;49.058;12.190;2024-03-02T14:31:35;29.27;;;19.75;;
23676;SDS011;31493;49.058;12.190;2024-03-02T14:34:02;27.80;;;18.55;;
23676;SDS011;31493;49.058;12.190;2024-03-02T14:36:29;27.95;;;19.27;;
23676;SDS011;31493;49.058;12.190;2024-03-02T14:38:58;27.08;;;18.23;;